createdAt,value
2018-12-23T00:01:40.690Z,33.099998
2018-12-23T00:07:04.011Z,39.799999
2018-12-23T00:12:37.270Z,38.799999
2018-12-23T00:18:11.203Z,47
2018-12-23T00:23:43.074Z,46.200001
2018-12-23T00:29:05.904Z,43
2018-12-23T00:34:38.704Z,40.700001
2018-12-23T00:40:11.900Z,38.099998
2018-12-23T00:45:45.279Z,31.5
2018-12-23T00:51:17.369Z,28.6
2018-12-23T00:56:50.227Z,35.700001
2018-12-23T01:02:21.823Z,28
2018-12-23T01:07:44.636Z,29.9
2018-12-23T01:13:16.502Z,29.200001
2018-12-23T01:18:48.498Z,27.5
2018-12-23T01:24:11.154Z,30.4
2018-12-23T01:29:34.878Z,27.799999
2018-12-23T01:34:57.578Z,27.200001
2018-12-23T01:40:29.632Z,23.6
2018-12-23T01:45:52.371Z,23.700001
2018-12-23T01:51:15.255Z,24.9
2018-12-23T01:56:37.999Z,24
2018-12-23T02:02:01.630Z,27.299999
2018-12-23T02:07:24.516Z,30.5
2018-12-23T02:12:56.408Z,34.400002
2018-12-23T02:18:19.115Z,34.299999
2018-12-23T02:23:52.042Z,33.200001
2018-12-23T02:29:24.123Z,34.400002
2018-12-23T02:34:46.776Z,30.200001
2018-12-23T02:40:09.472Z,26.700001
2018-12-23T02:45:32.201Z,27.799999
2018-12-23T02:50:54.896Z,29
2018-12-23T02:56:17.600Z,28.4
2018-12-23T03:01:40.326Z,30.200001
2018-12-23T03:07:03.838Z,30.6
2018-12-23T03:12:26.622Z,32.900002
2018-12-23T03:17:49.291Z,30.700001
2018-12-23T03:23:11.984Z,24
2018-12-23T03:28:34.732Z,23.299999
2018-12-23T03:34:06.604Z,22.299999
2018-12-23T03:39:29.371Z,23.700001
2018-12-23T03:44:52.259Z,24
2018-12-23T03:50:15.013Z,31.5
2018-12-23T03:55:37.709Z,28.700001
2018-12-23T04:01:01.060Z,30.299999
2018-12-23T04:06:24.570Z,24.299999
2018-12-23T04:11:46.549Z,20.200001
2018-12-23T04:17:09.297Z,18.4
2018-12-23T04:22:32.875Z,23.5
2018-12-23T04:27:55.731Z,22.5
2018-12-23T04:33:19.107Z,28.4
2018-12-23T04:38:41.927Z,26
2018-12-23T04:44:04.681Z,25.9
2018-12-23T04:49:27.482Z,25.4
2018-12-23T04:54:50.640Z,30.6
2018-12-23T05:00:13.269Z,21.5
2018-12-23T05:05:36.024Z,19.799999
2018-12-23T05:10:59.415Z,25.6
2018-12-23T05:16:22.099Z,27.1
2018-12-23T05:21:44.923Z,37
2018-12-23T05:27:07.780Z,30.5
2018-12-23T05:32:30.876Z,33.700001
2018-12-23T05:37:53.798Z,27.299999
2018-12-23T05:43:16.655Z,31.5
2018-12-23T05:48:48.783Z,39.299999
2018-12-23T05:54:11.535Z,40.700001
2018-12-23T05:59:44.201Z,39.200001
2018-12-23T06:05:06.977Z,45.799999
2018-12-23T06:10:30.811Z,42.599998
2018-12-23T06:15:53.477Z,51.599998
2018-12-23T06:21:26.264Z,45.599998
2018-12-23T06:26:49.259Z,49.599998
2018-12-23T06:32:11.951Z,55.5
2018-12-23T06:37:34.627Z,54
2018-12-23T06:42:57.774Z,53
2018-12-23T06:48:20.468Z,40.599998
2018-12-23T06:53:53.120Z,48.400002
2018-12-23T06:59:16.655Z,47.900002
2018-12-23T07:04:39.418Z,45.900002
2018-12-23T07:10:11.824Z,43.200001
2018-12-23T07:15:35.779Z,50.799999
2018-12-23T07:21:28.223Z,43.5
2018-12-23T07:26:51.074Z,46.700001
2018-12-23T07:32:13.787Z,47.400002
2018-12-23T07:37:45.652Z,44
2018-12-23T07:43:18.936Z,46.099998
2018-12-23T07:48:41.749Z,48.5
2018-12-23T07:54:04.686Z,48.099998
2018-12-23T07:59:28.104Z,56.299999
2018-12-23T08:04:50.987Z,47.200001
2018-12-23T08:10:13.805Z,53.799999
2018-12-23T08:15:36.518Z,55.200001
2018-12-23T08:20:59.361Z,51.299999
2018-12-23T08:26:22.202Z,51.099998
2018-12-23T08:31:44.883Z,51.900002
2018-12-23T08:37:08.715Z,52.599998
2018-12-23T08:42:31.469Z,47.200001
2018-12-23T08:48:03.949Z,51.700001
2018-12-23T08:53:27.049Z,52.200001
2018-12-23T08:58:49.820Z,52.5
2018-12-23T09:04:13.099Z,53.099998
2018-12-23T09:09:35.823Z,50.299999
2018-12-23T09:14:58.580Z,48.5
2018-12-23T09:20:21.647Z,50.099998
2018-12-23T09:25:44.494Z,49.599998
2018-12-23T09:31:07.485Z,43
2018-12-23T09:36:39.249Z,52.200001
2018-12-23T09:42:01.994Z,43.299999
2018-12-23T09:47:25.191Z,44.400002
2018-12-23T09:52:47.779Z,43.5
2018-12-23T09:58:10.816Z,47.400002
2018-12-23T10:03:33.602Z,44.900002
2018-12-23T10:08:56.571Z,50.200001
2018-12-23T10:14:19.287Z,52
2018-12-23T10:19:41.983Z,50
2018-12-23T10:25:04.927Z,54.5
2018-12-23T10:30:27.767Z,45.700001
2018-12-23T10:35:50.505Z,53.599998
2018-12-23T10:41:13.308Z,51.200001
2018-12-23T10:46:36.196Z,54.700001
2018-12-23T10:51:57.897Z,50
2018-12-23T10:57:20.641Z,58.799999
2018-12-23T11:02:44.015Z,54.5
2018-12-23T11:08:06.831Z,55.200001
2018-12-23T11:13:29.687Z,57.5
2018-12-23T11:18:52.450Z,53.700001
2018-12-23T11:24:15.245Z,54.299999
2018-12-23T11:29:38.011Z,59.299999
2018-12-23T11:35:00.773Z,57.5
2018-12-23T11:40:23.892Z,61.5
2018-12-23T11:45:46.590Z,61.299999
2018-12-23T11:51:09.448Z,69.099998
2018-12-23T11:56:32.258Z,63.700001
2018-12-23T12:01:55.041Z,76.5
2018-12-23T12:07:18.420Z,86.199997
2018-12-23T12:12:41.244Z,67.900002
2018-12-23T12:18:04.767Z,62.299999
2018-12-23T12:23:27.486Z,55.099998
2018-12-23T12:28:50.181Z,37.900002
2018-12-23T12:34:12.866Z,35.299999
2018-12-23T12:39:45.009Z,32.799999
2018-12-23T12:45:07.878Z,39.900002
2018-12-23T12:50:30.684Z,21.5
2018-12-23T12:55:53.484Z,21.799999
2018-12-23T13:01:16.314Z,20.1
2018-12-23T13:06:50.903Z,27.9
2018-12-23T13:12:23.978Z,24.700001
2018-12-23T13:17:46.996Z,26.5
2018-12-23T13:23:19.352Z,24
2018-12-23T13:28:42.229Z,22.5
2018-12-23T13:34:04.897Z,20.700001
2018-12-23T13:39:27.665Z,20.200001
2018-12-23T13:44:59.626Z,21
2018-12-23T13:50:22.286Z,19.799999
2018-12-23T13:55:45.125Z,21.4
2018-12-23T14:01:08.134Z,20.5
2018-12-23T14:06:30.808Z,19.1
2018-12-23T14:11:53.563Z,26.1
2018-12-23T14:17:16.338Z,21.6
2018-12-23T14:22:39.176Z,23.4
2018-12-23T14:28:02.704Z,22.9
2018-12-23T14:33:25.564Z,24.299999
2018-12-23T14:38:48.431Z,31.299999
2018-12-23T14:44:12.480Z,28.9
2018-12-23T14:49:44.611Z,29.9
2018-12-23T14:55:07.568Z,28.700001
2018-12-23T15:00:30.324Z,35.900002
2018-12-23T15:05:52.989Z,46
2018-12-23T15:11:15.681Z,54.099998
2018-12-23T15:16:38.422Z,44.599998
2018-12-23T15:22:01.340Z,51.599998
2018-12-23T15:27:24.764Z,47
2018-12-23T15:32:58.210Z,55.799999
2018-12-23T15:38:30.858Z,68.199997
2018-12-23T15:43:53.682Z,71.099998
2018-12-23T15:49:26.847Z,80.5
2018-12-23T15:54:59.823Z,89.099998
2018-12-23T16:00:32.730Z,92.5
2018-12-23T16:06:31.758Z,100
2018-12-23T16:11:54.633Z,96.800003
2018-12-23T16:17:20.121Z,91.699997
2018-12-23T16:23:11.186Z,87.900002
2018-12-23T16:28:34.161Z,74.5
2018-12-23T16:34:06.394Z,90.800003
2018-12-23T16:39:39.675Z,75.199997
2018-12-23T16:45:02.452Z,101
2018-12-23T16:50:34.559Z,80.300003
2018-12-23T16:55:57.807Z,83.400002
2018-12-23T17:01:31.675Z,95
2018-12-23T17:06:55.267Z,92.199997
2018-12-23T17:12:17.990Z,72.099998
2018-12-23T17:17:40.906Z,64.099998
2018-12-23T17:23:03.700Z,67.300003
2018-12-23T17:28:28.202Z,56.799999
2018-12-23T17:33:58.828Z,53.400002
2018-12-23T17:39:21.842Z,48.799999
2018-12-23T17:44:53.812Z,77.099998
2018-12-23T17:50:16.492Z,110.19999
2018-12-23T17:55:39.344Z,48.5
2018-12-23T18:01:12.102Z,48.200001
2018-12-23T18:06:34.959Z,63.200001
2018-12-23T18:12:07.424Z,78.099998
2018-12-23T18:17:41.030Z,122.09999
2018-12-23T18:23:14.872Z,85.300003
2018-12-23T18:28:37.550Z,80.599998
2018-12-23T18:34:11.739Z,108.69999
2018-12-23T18:39:34.707Z,69.699997
2018-12-23T18:44:57.571Z,120.09999
2018-12-23T18:50:30.418Z,126.4
2018-12-23T18:56:02.475Z,88.699997
2018-12-23T19:01:25.936Z,106.9
2018-12-23T19:06:57.646Z,102.59999
2018-12-23T19:12:20.344Z,148.3
2018-12-23T19:17:43.306Z,112.59999
2018-12-23T19:23:06.530Z,97.400002
2018-12-23T19:28:42.118Z,91.199997
2018-12-23T19:34:05.009Z,156.19999
2018-12-23T19:39:27.818Z,142.5
2018-12-23T19:45:00.202Z,93.400002
2018-12-23T19:50:24.202Z,89.199997
2018-12-23T19:55:46.941Z,96.900002
2018-12-23T20:01:20.088Z,101.3
2018-12-23T20:06:42.780Z,102.09999
2018-12-23T20:12:05.543Z,149.3
2018-12-23T20:17:37.611Z,111.09999
2018-12-23T20:23:00.284Z,49.200001
2018-12-23T20:28:23.080Z,22.299999
2018-12-23T20:33:55.482Z,12.9
2018-12-23T20:39:28.097Z,12
2018-12-23T20:44:51.103Z,8.4
2018-12-23T20:50:23.349Z,7.8
2018-12-23T20:55:46.180Z,10.3
2018-12-23T21:01:20.007Z,6.2
2018-12-23T21:06:42.834Z,4.7
2018-12-23T21:12:14.868Z,7.3
2018-12-23T21:17:38.745Z,4.9
2018-12-23T21:23:01.515Z,5.7
2018-12-23T21:28:24.237Z,5.8
2018-12-23T21:33:47.226Z,3.9
2018-12-23T21:39:10.046Z,5.5
2018-12-23T21:44:32.729Z,6.2
2018-12-23T21:49:56.415Z,4.1
2018-12-23T21:55:19.190Z,5.3
2018-12-23T22:00:42.932Z,4.9
2018-12-23T22:06:06.429Z,8.2
2018-12-23T22:11:33.001Z,7.9
2018-12-23T22:16:52.986Z,8.7
2018-12-23T22:22:15.636Z,10.7
2018-12-23T22:27:39.161Z,9.8
2018-12-23T22:33:01.839Z,10.4
2018-12-23T22:38:24.593Z,11.3
2018-12-23T22:43:47.430Z,10.1
2018-12-23T22:49:10.092Z,11.6
2018-12-23T22:54:33.055Z,13.1
2018-12-23T23:00:08.473Z,14.4
2018-12-23T23:05:31.231Z,16.4
2018-12-23T23:10:53.935Z,15.4
2018-12-23T23:16:16.843Z,10.8
2018-12-23T23:21:39.572Z,11.4
2018-12-23T23:27:11.434Z,12.2
2018-12-23T23:32:35.145Z,11.9
2018-12-23T23:38:08.510Z,13.1
2018-12-23T23:43:31.362Z,16
2018-12-23T23:48:54.380Z,19.299999
2018-12-23T23:54:17.200Z,18.299999
2018-12-23T23:59:39.853Z,14.5
